Time;durP1;ratioP1;P1;durP2;ratioP2;P2;SDS_P1;SDS_P2;PMS_P1;PMS_P2;Temp;Humidity;BMP_temperature;BMP_pressure;BME280_temperature;BME280_humidity;BME280_pressure;Samples;Min_cycle;Max_cycle;Signal;HPM_P1;HPM_P2
2021/10/19 00:00:28;;;;;;;9.45;6.00;;;;;;;-144.43;100.00;64487.81;5031148;28;20029;-65
2021/10/19 00:03:01;;;;;;;11.02;6.55;;;;;;;-144.43;100.00;64487.81;5031050;28;20112;-64
2021/10/19 00:05:26;;;;;;;8.33;5.87;;;;;;;-144.43;100.00;64487.81;5013677;28;20053;-65
2021/10/19 00:07:55;;;;;;;9.32;6.78;;;;;;;-144.43;100.00;64487.81;5013502;28;20370;-65
2021/10/19 00:10:21;;;;;;;12.02;6.90;;;;;;;-144.43;100.00;64487.81;5030959;28;20034;-65
2021/10/19 00:12:46;;;;;;;9.20;6.43;;;;;;;-144.43;100.00;64487.81;5013420;28;20395;-65
2021/10/19 00:15:13;;;;;;;9.45;6.22;;;;;;;-144.43;100.00;64487.81;4997339;28;20029;-64
2021/10/19 00:17:45;;;;;;;8.98;6.35;;;;;;;-144.43;100.00;64487.81;5030949;28;20094;-64
2021/10/19 00:20:11;;;;;;;12.18;6.78;;;;;;;-144.43;100.00;64487.81;5030859;28;20045;-65
2021/10/19 00:22:37;;;;;;;9.43;6.13;;;;;;;-144.43;100.00;64487.81;5013462;28;20044;-61
2021/10/19 00:25:06;;;;;;;9.27;5.45;;;;;;;-144.43;100.00;64487.81;4997121;28;20025;-61
2021/10/19 00:27:33;;;;;;;8.60;5.65;;;;;;;-144.43;100.00;64487.81;4997359;28;20032;-64
2021/10/19 00:30:04;;;;;;;9.52;5.90;;;;;;;-144.43;100.00;64487.81;5030419;28;20491;-65
2021/10/19 00:32:29;;;;;;;9.90;5.78;;;;;;;-144.43;100.00;64487.81;5030757;28;20480;-64
2021/10/19 00:34:57;;;;;;;10.00;6.13;;;;;;;-144.43;100.00;64487.81;5031150;28;20029;-65
2021/10/19 00:37:42;;;;;;;6.72;5.20;;;;;;;-144.43;100.00;64487.81;5030670;28;20025;-65
2021/10/19 00:40:08;;;;;;;9.48;5.30;;;;;;;-144.43;100.00;64487.81;5030662;28;20049;-59
2021/10/19 00:42:34;;;;;;;11.68;5.47;;;;;;;-144.43;100.00;64487.81;4996656;28;20025;-61
2021/10/19 00:45:04;;;;;;;11.15;5.45;;;;;;;-144.43;100.00;64487.81;5013106;28;20053;-62
2021/10/19 00:47:34;;;;;;;8.18;5.45;;;;;;;-144.43;100.00;64487.81;5012966;28;20443;-62
2021/10/19 00:50:03;;;;;;;9.23;5.05;;;;;;;-144.43;100.00;64487.81;5018914;28;20025;-62
2021/10/19 00:52:32;;;;;;;6.60;4.47;;;;;;;-144.43;100.00;64487.81;5048658;28;20029;-60
2021/10/19 00:55:04;;;;;;;6.55;4.32;;;;;;;-144.43;100.00;64487.81;5017056;28;20017;-62
2021/10/19 00:57:33;;;;;;;7.65;4.50;;;;;;;-144.43;100.00;64487.81;5016875;28;20397;-61
2021/10/19 00:59:58;;;;;;;7.78;4.80;;;;;;;-144.43;100.00;64487.81;5016176;28;20037;-59
2021/10/19 01:02:24;;;;;;;7.68;4.72;;;;;;;-144.43;100.00;64487.81;5000184;28;20384;-60
2021/10/19 01:04:49;;;;;;;7.45;4.60;;;;;;;-144.43;100.00;64487.81;5033156;28;20029;-61
2021/10/19 01:07:18;;;;;;;6.25;4.65;;;;;;;-144.43;100.00;64487.81;5016081;28;20037;-61
2021/10/19 01:09:46;;;;;;;6.35;4.35;;;;;;;-144.43;100.00;64487.81;5000114;28;20472;-62
2021/10/19 01:12:12;;;;;;;6.20;4.07;;;;;;;-144.43;100.00;64487.81;5016871;28;20384;-60
2021/10/19 01:14:40;;;;;;;6.40;3.95;;;;;;;-144.43;100.00;64487.81;5033935;28;20037;-60
2021/10/19 01:17:05;;;;;;;6.10;4.32;;;;;;;-144.43;100.00;64487.81;5016411;28;20033;-62
2021/10/19 01:19:31;;;;;;;6.18;3.78;;;;;;;-144.43;100.00;64487.81;5033708;28;20021;-63
2021/10/19 01:22:01;;;;;;;6.18;4.18;;;;;;;-144.43;100.00;64487.81;5000527;28;20029;-58
2021/10/19 01:24:30;;;;;;;5.28;3.78;;;;;;;-144.43;100.00;64487.81;5034198;28;20112;-58
2021/10/19 01:26:56;;;;;;;5.63;4.03;;;;;;;-144.43;100.00;64487.81;5000403;28;20030;-61
2021/10/19 01:29:21;;;;;;;8.18;4.18;;;;;;;-144.43;100.00;64487.81;4999189;28;20022;-57
2021/10/19 01:31:51;;;;;;;7.45;3.70;;;;;;;-144.43;100.00;64487.81;5016243;28;20025;-60
2021/10/19 01:34:23;;;;;;;4.97;3.20;;;;;;;-144.43;100.00;64487.81;5016361;28;20423;-62
2021/10/19 01:36:48;;;;;;;4.32;3.28;;;;;;;-144.43;100.00;64487.81;5016346;28;20037;-61
2021/10/19 01:39:14;;;;;;;6.07;3.75;;;;;;;-144.43;100.00;64487.81;4999392;28;20124;-62
2021/10/19 01:41:43;;;;;;;5.20;3.60;;;;;;;-144.43;100.00;64487.81;5033816;28;20022;-62
2021/10/19 01:44:11;;;;;;;5.88;3.50;;;;;;;-144.43;100.00;64487.81;5033406;28;20021;-61
2021/10/19 01:46:36;;;;;;;5.07;3.80;;;;;;;-144.43;100.00;64487.81;5033777;28;20022;-60
2021/10/19 01:49:02;;;;;;;4.53;3.20;;;;;;;-144.43;100.00;64487.81;5033416;28;20541;-62
2021/10/19 01:51:30;;;;;;;4.88;3.58;;;;;;;-144.43;100.00;64487.81;5014208;28;20033;-62
2021/10/19 01:53:59;;;;;;;5.18;3.55;;;;;;;-144.43;100.00;64487.81;5018299;28;20025;-59
2021/10/19 01:56:24;;;;;;;7.45;3.72;;;;;;;-144.43;100.00;64487.81;5015881;28;20175;-62
2021/10/19 01:58:49;;;;;;;6.57;3.75;;;;;;;-144.43;100.00;64487.81;5014863;28;20535;-60
2021/10/19 02:01:15;;;;;;;6.63;3.53;;;;;;;-144.43;100.00;64487.81;4999297;28;20464;-61
2021/10/19 02:03:40;;;;;;;4.45;2.88;;;;;;;-144.43;100.00;64487.81;5033637;28;20025;-60
2021/10/19 02:06:06;;;;;;;5.82;3.45;;;;;;;-144.43;100.00;64487.81;5033585;28;20056;-60
2021/10/19 02:08:32;;;;;;;4.30;2.97;;;;;;;-144.43;100.00;64487.81;5015517;28;20030;-61
2021/10/19 02:11:03;;;;;;;4.68;3.03;;;;;;;-144.43;100.00;64487.81;5033242;28;20099;-62
2021/10/19 02:13:29;;;;;;;4.53;2.70;;;;;;;-144.43;100.00;64487.81;5015671;28;20083;-63
2021/10/19 02:15:57;;;;;;;5.05;3.45;;;;;;;-144.43;100.00;64487.81;5033257;28;20025;-60
2021/10/19 02:18:25;;;;;;;5.15;3.35;;;;;;;-144.43;100.00;64487.81;5015224;28;20060;-59
2021/10/19 02:20:51;;;;;;;3.75;2.95;;;;;;;-144.43;100.00;64487.81;5033211;28;20026;-57
2021/10/19 02:23:22;;;;;;;4.75;3.33;;;;;;;-144.43;100.00;64487.81;5033269;28;20033;-62
2021/10/19 02:25:48;;;;;;;5.90;3.15;;;;;;;-144.43;100.00;64487.81;5015380;28;20035;-60
2021/10/19 02:28:13;;;;;;;6.05;3.35;;;;;;;-144.43;100.00;64487.81;4998654;28;20029;-62
2021/10/19 02:30:38;;;;;;;4.40;3.08;;;;;;;-144.43;100.00;64487.81;5015288;28;20032;-61
2021/10/19 02:33:04;;;;;;;5.18;2.97;;;;;;;-144.43;100.00;64487.81;5033168;28;20029;-60
2021/10/19 02:35:32;;;;;;;4.50;3.10;;;;;;;-144.43;100.00;64487.81;5033115;28;20464;-62
2021/10/19 02:38:01;;;;;;;4.43;2.97;;;;;;;-144.43;100.00;64487.81;5032668;28;20216;-61
2021/10/19 02:40:26;;;;;;;3.75;2.75;;;;;;;-144.43;100.00;64487.81;5015626;28;20060;-61
2021/10/19 02:42:52;;;;;;;5.38;2.60;;;;;;;-144.43;100.00;64487.81;5014812;28;20025;-60
2021/10/19 02:45:20;;;;;;;4.50;2.97;;;;;;;-144.43;100.00;64487.81;5015077;28;20026;-59
2021/10/19 02:47:48;;;;;;;5.13;3.47;;;;;;;-144.43;100.00;64487.81;5032354;28;20472;-59
2021/10/19 02:50:14;;;;;;;4.75;2.88;;;;;;;-144.43;100.00;64487.81;5037204;28;20033;-59
2021/10/19 02:52:40;;;;;;;4.20;3.05;;;;;;;-144.43;100.00;64487.81;5018280;28;20032;-62
2021/10/19 02:55:07;;;;;;;4.85;2.95;;;;;;;-144.43;100.00;64487.81;5014705;28;20116;-62
2021/10/19 02:57:32;;;;;;;3.50;2.75;;;;;;;-144.43;100.00;64487.81;5032066;28;20021;-62
2021/10/19 02:59:58;;;;;;;6.63;3.13;;;;;;;-144.43;100.00;64487.81;4997845;28;20025;-59
2021/10/19 03:02:23;;;;;;;4.97;3.20;;;;;;;-144.43;100.00;64487.81;5014840;28;20041;-62
2021/10/19 03:04:48;;;;;;;6.80;2.97;;;;;;;-144.43;100.00;64487.81;5014853;28;20024;-62
2021/10/19 03:07:14;;;;;;;6.65;2.72;;;;;;;-144.43;100.00;64487.81;5032550;28;20472;-59
2021/10/19 03:09:41;;;;;;;4.85;3.10;;;;;;;-144.43;100.00;64487.81;5013982;28;20025;-62
2021/10/19 03:12:07;;;;;;;4.28;2.50;;;;;;;-144.43;100.00;64487.81;5031280;28;20375;-62
2021/10/19 03:14:35;;;;;;;4.35;2.97;;;;;;;-144.43;100.00;64487.81;4998012;28;20025;-62
2021/10/19 03:17:00;;;;;;;5.63;3.00;;;;;;;-144.43;100.00;64487.81;5014543;28;20030;-59
2021/10/19 03:19:26;;;;;;;4.53;2.83;;;;;;;-144.43;100.00;64487.81;5014074;28;20511;-61
2021/10/19 03:21:51;;;;;;;4.50;2.80;;;;;;;-144.43;100.00;64487.81;5031910;28;20035;-62
2021/10/19 03:24:17;;;;;;;5.90;3.63;;;;;;;-144.43;100.00;64487.81;5014303;28;20536;-62
2021/10/19 03:26:42;;;;;;;3.83;3.00;;;;;;;-144.43;100.00;64487.81;5014209;28;20451;-59
2021/10/19 03:29:08;;;;;;;5.93;3.08;;;;;;;-144.43;100.00;64487.81;5031536;28;20060;-62
2021/10/19 03:31:35;;;;;;;4.45;3.10;;;;;;;-144.43;100.00;64487.81;5031838;28;20477;-60
2021/10/19 03:34:09;;;;;;;4.53;2.92;;;;;;;-144.43;100.00;64487.81;5032040;28;20031;-62
2021/10/19 03:36:37;;;;;;;5.65;3.05;;;;;;;-144.43;100.00;64487.81;5013967;28;20140;-62
2021/10/19 03:39:03;;;;;;;5.10;2.78;;;;;;;-144.43;100.00;64487.81;5030837;28;20045;-62
2021/10/19 03:41:31;;;;;;;6.10;2.83;;;;;;;-144.43;100.00;64487.81;5031834;28;20025;-58
2021/10/19 03:44:00;;;;;;;3.47;2.97;;;;;;;-144.43;100.00;64487.81;5014469;28;20021;-58
2021/10/19 03:46:26;;;;;;;3.55;2.78;;;;;;;-144.43;100.00;64487.81;5032122;28;20028;-58
2021/10/19 03:48:53;;;;;;;4.72;2.72;;;;;;;-144.43;100.00;64487.81;5031491;28;20029;-58
2021/10/19 03:51:19;;;;;;;4.32;3.00;;;;;;;-144.43;100.00;64487.81;5027764;28;20033;-62
2021/10/19 03:53:45;;;;;;;3.22;2.33;;;;;;;-144.43;100.00;64487.81;5035038;28;20044;-59
2021/10/19 03:56:16;;;;;;;5.03;2.90;;;;;;;-144.43;100.00;64487.81;5013802;28;20033;-57
2021/10/19 03:58:45;;;;;;;6.97;2.88;;;;;;;-144.43;100.00;64487.81;4997291;28;20682;-57
2021/10/19 04:01:16;;;;;;;3.72;2.63;;;;;;;-144.43;100.00;64487.81;4997638;28;20034;-59
2021/10/19 04:03:45;;;;;;;3.55;2.70;;;;;;;-144.43;100.00;64487.81;5031284;28;20026;-57
2021/10/19 04:06:13;;;;;;;3.58;2.60;;;;;;;-144.43;100.00;64487.81;5031481;28;20427;-56
2021/10/19 04:08:41;;;;;;;4.72;2.80;;;;;;;-144.43;100.00;64487.81;5013010;28;20025;-57
2021/10/19 04:11:07;;;;;;;4.18;2.70;;;;;;;-144.43;100.00;64487.81;5031474;28;20021;-57
2021/10/19 04:13:33;;;;;;;4.03;2.80;;;;;;;-144.43;100.00;64487.81;5013977;28;20083;-62
2021/10/19 04:15:58;;;;;;;3.13;2.38;;;;;;;-144.43;100.00;64487.81;5013755;28;20105;-59
2021/10/19 04:18:23;;;;;;;3.63;2.80;;;;;;;-144.43;100.00;64487.81;4996499;28;20083;-62
2021/10/19 04:20:49;;;;;;;4.18;2.30;;;;;;;-144.43;100.00;64487.81;5030840;28;20534;-60
2021/10/19 04:23:14;;;;;;;4.22;2.30;;;;;;;-144.43;100.00;64487.81;5030108;28;20091;-59
2021/10/19 04:25:39;;;;;;;3.80;2.47;;;;;;;-144.43;100.00;64487.81;5013650;28;20523;-58
2021/10/19 04:28:05;;;;;;;2.90;2.22;;;;;;;-144.43;100.00;64487.81;5013046;28;20037;-60
2021/10/19 04:30:30;;;;;;;3.60;2.47;;;;;;;-144.43;100.00;64487.81;5031089;28;20105;-61
2021/10/19 04:32:56;;;;;;;3.33;2.10;;;;;;;-144.43;100.00;64487.81;5031030;28;20104;-60
2021/10/19 04:35:27;;;;;;;5.95;2.40;;;;;;;-144.43;100.00;64487.81;5030951;28;20033;-58
2021/10/19 04:37:52;;;;;;;3.10;2.22;;;;;;;-144.43;100.00;64487.81;5012454;28;20044;-57
2021/10/19 04:40:21;;;;;;;3.55;2.72;;;;;;;-144.43;100.00;64487.81;5030985;28;20480;-58
2021/10/19 04:42:49;;;;;;;3.63;2.55;;;;;;;-144.43;100.00;64487.81;5031070;28;20025;-59
2021/10/19 04:45:18;;;;;;;2.88;2.20;;;;;;;-144.43;100.00;64487.81;5031155;28;20028;-58
2021/10/19 04:47:44;;;;;;;4.05;2.40;;;;;;;-144.43;100.00;64487.81;5030477;28;20092;-55
2021/10/19 04:50:13;;;;;;;4.47;2.50;;;;;;;-144.43;100.00;64487.81;5034661;28;20117;-60
2021/10/19 04:52:47;;;;;;;2.40;2.17;;;;;;;-144.43;100.00;64487.81;5030764;28;20029;-56
2021/10/19 04:55:13;;;;;;;3.75;2.72;;;;;;;5.61;100.00;95899.28;5031078;28;20021;-59
2021/10/19 04:57:38;;;;;;;2.88;2.30;;;;;;;5.60;100.00;95923.44;5030325;28;20503;-62
2021/10/19 05:00:04;;;;;;;7.28;2.15;;;;;;;5.58;100.00;95941.44;5012877;28;20056;-60
2021/10/19 05:02:29;;;;;;;3.05;2.03;;;;;;;5.60;100.00;95948.16;5030704;28;20032;-58
2021/10/19 05:04:55;;;;;;;3.22;2.40;;;;;;;5.67;100.00;95946.28;5030707;28;20025;-60
2021/10/19 05:07:20;;;;;;;3.85;2.38;;;;;;;5.71;100.00;95950.16;5030670;28;20025;-59
2021/10/19 05:09:45;;;;;;;2.85;1.92;;;;;;;5.76;100.00;95965.47;5030373;28;20031;-62
2021/10/19 05:12:11;;;;;;;3.90;2.30;;;;;;;5.80;100.00;95954.19;5030880;28;20025;-59
2021/10/19 05:14:36;;;;;;;3.22;2.08;;;;;;;5.83;100.00;95963.56;5012886;28;20025;-58
2021/10/19 05:17:02;;;;;;;4.15;2.42;;;;;;;5.86;100.00;95978.28;5030453;28;20890;-59
2021/10/19 05:19:31;;;;;;;4.22;2.28;;;;;;;5.88;100.00;95978.91;5012464;28;20037;-60
2021/10/19 05:22:02;;;;;;;3.25;2.40;;;;;;;5.89;100.00;95984.00;5012749;28;20033;-58
2021/10/19 05:24:27;;;;;;;3.22;2.15;;;;;;;5.91;100.00;95978.50;5010925;28;20048;-59
2021/10/19 05:26:53;;;;;;;3.20;2.25;;;;;;;5.91;100.00;95974.00;5026168;28;20025;-62
2021/10/19 05:29:18;;;;;;;4.35;2.22;;;;;;;5.93;100.00;95984.41;5044028;28;20025;-59
2021/10/19 05:31:46;;;;;;;3.38;2.50;;;;;;;5.96;100.00;95999.94;5032493;28;20021;-59
2021/10/19 05:34:11;;;;;;;3.72;2.50;;;;;;;5.97;100.00;95977.63;5049439;28;20052;-60
2021/10/19 05:36:39;;;;;;;2.80;1.77;;;;;;;5.97;100.00;95993.59;5042524;28;20067;-57
2021/10/19 05:39:05;;;;;;;3.10;2.10;;;;;;;6.00;100.00;95983.34;5027391;28;20052;-59
2021/10/19 05:41:32;;;;;;;2.92;2.20;;;;;;;6.03;100.00;95985.59;5046568;28;20029;-58
2021/10/19 05:43:58;;;;;;;3.25;2.40;;;;;;;6.04;100.00;95989.88;5049771;28;20031;-62
2021/10/19 05:46:23;;;;;;;4.60;2.25;;;;;;;6.05;100.00;95991.50;4970474;28;20044;-59
2021/10/19 05:48:49;;;;;;;4.70;2.58;;;;;;;6.07;100.00;95992.09;4995289;28;20482;-61
2021/10/19 05:51:14;;;;;;;2.15;1.95;;;;;;;6.08;100.00;95996.41;5052263;28;20021;-60
2021/10/19 05:53:39;;;;;;;3.78;2.40;;;;;;;6.06;100.00;95989.66;5043063;28;20079;-58
2021/10/19 05:56:05;;;;;;;2.30;1.80;;;;;;;6.11;100.00;96011.13;5052224;28;20550;-59
2021/10/19 05:58:30;;;;;;;3.67;2.72;;;;;;;6.16;100.00;96003.28;5048250;28;20361;-59
2021/10/19 06:00:55;;;;;;;3.13;1.90;;;;;;;6.18;100.00;95995.91;5033371;28;20021;-57
2021/10/19 06:03:20;;;;;;;3.55;2.15;;;;;;;6.24;100.00;96007.56;5041351;28;20025;-58
2021/10/19 06:05:46;;;;;;;3.25;1.95;;;;;;;6.26;100.00;96011.63;5038440;28;20033;-59
2021/10/19 06:08:11;;;;;;;2.53;1.85;;;;;;;6.27;100.00;96012.44;5021348;28;20533;-58
2021/10/19 06:10:37;;;;;;;4.28;2.08;;;;;;;6.27;100.00;95999.94;5047413;28;20033;-59
2021/10/19 06:13:02;;;;;;;2.45;1.95;;;;;;;6.27;100.00;95999.94;5051189;28;20029;-65
2021/10/19 06:15:28;;;;;;;2.95;2.00;;;;;;;6.28;100.00;95996.25;5045226;28;20053;-57
2021/10/19 06:17:54;;;;;;;3.08;1.80;;;;;;;6.29;100.00;96013.03;5048497;28;20448;-55
2021/10/19 06:20:20;;;;;;;4.90;2.15;;;;;;;6.31;100.00;96003.81;5035470;28;20061;-65
2021/10/19 06:22:45;;;;;;;2.92;2.15;;;;;;;6.34;100.00;96006.03;5047279;28;20025;-62
2021/10/19 06:25:10;;;;;;;4.65;1.92;;;;;;;6.38;100.00;96009.91;5024377;28;20404;-60
2021/10/19 06:27:36;;;;;;;2.20;1.80;;;;;;;6.42;100.00;96009.50;5047535;28;20121;-59
2021/10/19 06:30:03;;;;;;;3.30;2.25;;;;;;;6.49;100.00;96020.88;5031614;28;20052;-58
2021/10/19 06:32:29;;;;;;;2.75;1.70;;;;;;;6.56;100.00;96016.34;5015348;28;20036;-60
2021/10/19 06:34:54;;;;;;;2.67;1.70;;;;;;;6.60;100.00;96013.00;5032999;28;20026;-58
2021/10/19 06:37:19;;;;;;;6.60;1.70;;;;;;;6.69;100.00;96010.91;5031211;28;20034;-59
2021/10/19 06:39:48;;;;;;;4.40;1.75;;;;;;;6.73;100.00;96013.94;5050289;23;20049;-61
2021/10/19 06:42:18;;;;;;;3.22;2.20;;;;;;;6.80;100.00;96015.50;5045833;28;20373;-61
2021/10/19 06:44:44;;;;;;;2.85;1.95;;;;;;;6.85;100.00;96014.88;5043973;28;20036;-62
2021/10/19 06:47:09;;;;;;;2.40;1.83;;;;;;;6.91;100.00;96011.31;5010207;28;20021;-62
2021/10/19 06:49:34;;;;;;;2.00;1.60;;;;;;;6.94;100.00;96009.03;5031918;28;20036;-61
2021/10/19 06:52:00;;;;;;;3.50;1.88;;;;;;;6.99;100.00;96013.72;5031844;28;20426;-62
2021/10/19 06:54:25;;;;;;;3.00;2.38;;;;;;;7.03;100.00;96004.22;5047548;28;20468;-62
2021/10/19 06:56:50;;;;;;;3.40;2.08;;;;;;;7.09;100.00;96013.22;5030842;28;20476;-62
2021/10/19 06:59:16;;;;;;;3.10;1.95;;;;;;;7.12;100.00;96018.91;5047177;28;20075;-61
2021/10/19 07:01:41;;;;;;;4.25;2.40;;;;;;;7.18;100.00;96015.38;5029051;28;20033;-61
2021/10/19 07:04:06;;;;;;;4.78;2.08;;;;;;;7.27;100.00;96015.88;5032176;28;20499;-62
2021/10/19 07:06:34;;;;;;;3.50;2.13;;;;;;;7.32;100.00;96021.38;5032461;28;20021;-62
2021/10/19 07:08:59;;;;;;;4.38;2.00;;;;;;;7.32;100.00;96017.91;5031232;28;20037;-62
2021/10/19 07:11:27;;;;;;;4.07;1.73;;;;;;;7.44;100.00;96027.59;5011077;28;20038;-62
2021/10/19 07:13:55;;;;;;;3.42;2.15;;;;;;;7.50;100.00;96026.72;5047370;28;20034;-62
2021/10/19 07:16:21;;;;;;;7.78;5.20;;;;;;;7.68;100.00;96035.72;5031913;28;20024;-62
2021/10/19 07:18:46;;;;;;;7.47;4.97;;;;;;;7.79;100.00;96037.66;5033794;28;20036;-61
2021/10/19 07:21:11;;;;;;;4.70;3.10;;;;;;;7.89;100.00;96034.44;5041418;28;20073;-61
2021/10/19 07:23:37;;;;;;;4.88;2.47;;;;;;;8.01;100.00;96027.31;5041101;28;20025;-61
2021/10/19 07:26:02;;;;;;;3.20;2.03;;;;;;;8.08;100.00;96022.72;5047144;28;20057;-61
2021/10/19 07:28:28;;;;;;;3.70;1.90;;;;;;;8.24;100.00;96018.59;5030538;28;20036;-62
2021/10/19 07:30:53;;;;;;;2.67;1.98;;;;;;;8.34;100.00;96011.69;5029999;28;20029;-62
2021/10/19 07:33:19;;;;;;;5.45;2.55;;;;;;;8.40;100.00;96016.13;5031253;28;20082;-62
2021/10/19 07:35:44;;;;;;;3.05;2.50;;;;;;;8.50;100.00;96002.22;5031503;28;20025;-62
2021/10/19 07:38:11;;;;;;;2.60;1.92;;;;;;;8.59;100.00;96006.19;5046890;28;20483;-62
2021/10/19 07:40:37;;;;;;;2.95;2.08;;;;;;;8.66;100.00;96000.72;5031069;28;20041;-61
2021/10/19 07:43:02;;;;;;;7.47;2.50;;;;;;;8.73;100.00;95992.63;5029980;28;20036;-62
2021/10/19 07:45:29;;;;;;;4.97;3.50;;;;;;;8.80;100.00;95996.81;5031284;28;20373;-62
2021/10/19 07:47:57;;;;;;;3.20;1.88;;;;;;;8.88;100.00;95998.31;5014009;28;20091;-62
2021/10/19 07:50:23;;;;;;;4.97;2.17;;;;;;;8.93;100.00;95993.09;5031167;28;20017;-62
2021/10/19 07:52:50;;;;;;;3.72;2.55;;;;;;;9.03;100.00;95997.88;5029609;28;20032;-62
2021/10/19 07:55:15;;;;;;;2.95;2.05;;;;;;;9.13;100.00;95988.22;5021435;28;20044;-62
2021/10/19 07:57:51;;;;;;;3.00;2.15;;;;;;;9.17;100.00;95988.56;5035122;28;20076;-62
2021/10/19 08:00:22;;;;;;;5.03;2.33;;;;;;;9.28;100.00;95985.06;5030508;28;20062;-62
2021/10/19 08:02:48;;;;;;;2.30;1.85;;;;;;;9.34;100.00;95984.16;5029297;28;20040;-61
2021/10/19 08:05:14;;;;;;;3.22;2.33;;;;;;;9.43;100.00;95980.03;5012002;28;20025;-61
2021/10/19 08:07:41;;;;;;;3.38;2.10;;;;;;;9.53;100.00;95977.56;5021460;28;20030;-62
2021/10/19 08:10:07;;;;;;;3.78;2.00;;;;;;;9.61;100.00;95970.25;5016018;28;20029;-61
2021/10/19 08:12:35;;;;;;;3.65;1.92;;;;;;;9.68;100.00;95965.59;5032800;28;20024;-62
2021/10/19 08:15:01;;;;;;;3.05;1.83;;;;;;;9.73;100.00;95953.09;5050994;28;20025;-62
2021/10/19 08:17:27;;;;;;;3.20;2.17;;;;;;;9.82;100.00;95942.84;5050985;28;20021;-62
2021/10/19 08:19:58;;;;;;;4.25;2.38;;;;;;;9.91;100.00;95940.59;5049483;28;20479;-62
2021/10/19 08:22:24;;;;;;;3.50;2.13;;;;;;;9.99;100.00;95934.88;5050627;28;20035;-63
2021/10/19 08:24:49;;;;;;;3.25;2.35;;;;;;;10.04;100.00;95910.84;5050701;28;20025;-63
2021/10/19 08:27:15;;;;;;;2.88;1.90;;;;;;;10.12;100.00;95903.25;5033143;28;20113;-64
2021/10/19 08:29:40;;;;;;;8.07;2.38;;;;;;;10.21;100.00;95895.63;5050843;28;20036;-63
2021/10/19 08:32:05;;;;;;;6.55;2.60;;;;;;;10.30;100.00;95870.09;5050329;28;20032;-64
2021/10/19 08:34:31;;;;;;;3.83;1.83;;;;;;;10.42;100.00;95872.72;5031951;28;20028;-64
2021/10/19 08:36:56;;;;;;;4.80;2.10;;;;;;;10.52;100.00;95851.41;5031112;28;20014;-64
2021/10/19 08:39:21;;;;;;;3.10;2.13;;;;;;;10.58;100.00;95828.19;5045576;28;20085;-64
2021/10/19 08:41:47;;;;;;;5.63;2.10;;;;;;;10.66;100.00;95819.75;5030229;28;20045;-63
2021/10/19 08:44:12;;;;;;;3.40;2.20;;;;;;;10.75;100.00;95791.47;5009842;28;20053;-63
2021/10/19 08:46:37;;;;;;;3.75;2.13;;;;;;;10.83;100.00;95774.94;5004393;28;20030;-63
2021/10/19 08:49:03;;;;;;;5.47;2.25;;;;;;;10.91;100.00;95741.53;5023379;28;20029;-64
2021/10/19 08:51:28;;;;;;;4.28;2.00;;;;;;;11.00;100.00;95714.06;5010995;28;20033;-63
2021/10/19 08:53:54;;;;;;;4.38;2.00;;;;;;;11.11;100.00;95684.66;5044219;28;20025;-62
2021/10/19 08:56:21;;;;;;;4.65;2.13;;;;;;;11.19;100.00;95660.09;5030814;28;20021;-63
2021/10/19 08:58:57;;;;;;;2.58;2.08;;;;;;;11.26;100.00;95640.03;5030327;28;20488;-63
2021/10/19 09:01:39;;;;;;;9.10;2.88;;;;;;;11.31;100.00;95607.09;5025546;28;20029;-63
2021/10/19 09:04:09;;;;;;;4.55;2.58;;;;;;;11.41;100.00;95588.41;5022897;28;20693;-63
2021/10/19 09:06:36;;;;;;;3.40;2.20;;;;;;;11.57;100.00;95565.97;5032115;28;20032;-62
2021/10/19 09:09:10;;;;;;;2.28;1.58;;;;;;;11.60;100.00;95557.38;5051157;28;20060;-64
2021/10/19 09:11:45;;;;;;;2.38;1.63;;;;;;;11.64;100.00;95548.84;5035352;28;20034;-64
2021/10/19 09:14:12;;;;;;;2.22;1.73;;;;;;;11.79;100.00;95543.53;5034247;28;20033;-64
2021/10/19 09:16:38;;;;;;;3.33;1.75;;;;;;;11.84;100.00;95532.88;5012908;28;20042;-64
2021/10/19 09:19:04;;;;;;;2.30;1.63;;;;;;;11.93;100.00;95531.28;5044947;28;20479;-63
2021/10/19 09:21:30;;;;;;;2.70;1.88;;;;;;;12.08;100.00;95534.03;5019169;28;20120;-63
2021/10/19 09:24:17;;;;;;;3.65;2.10;;;;;;;12.20;100.00;95531.13;5054123;28;20108;-63
2021/10/19 09:26:49;;;;;;;2.20;1.60;;;;;;;12.27;100.00;95542.44;5019673;28;20025;-64
2021/10/19 09:29:14;;;;;;;2.50;1.58;;;;;;;12.33;100.00;95549.44;5053642;28;20025;-64
2021/10/19 09:31:40;;;;;;;4.78;1.90;;;;;;;12.38;100.00;95554.84;5053974;28;20025;-64
2021/10/19 09:34:06;;;;;;;4.43;1.63;;;;;;;12.55;100.00;95568.03;5052635;28;20498;-64
2021/10/19 09:36:34;;;;;;;3.30;1.50;;;;;;;12.61;100.00;95572.34;5036279;28;20442;-64
2021/10/19 09:39:00;;;;;;;3.90;1.90;;;;;;;12.71;100.00;95588.50;5035768;28;20052;-64
2021/10/19 09:41:28;;;;;;;2.25;1.60;;;;;;;12.81;100.00;95611.91;5034971;28;20040;-64
2021/10/19 09:43:53;;;;;;;3.00;1.80;;;;;;;12.94;100.00;95629.41;5035731;28;20480;-62
2021/10/19 09:46:25;;;;;;;5.00;1.67;;;;;;;13.04;100.00;95642.88;5035795;28;20031;-63
2021/10/19 09:48:50;;;;;;;5.15;1.67;;;;;;;13.16;100.00;95648.00;5053561;28;20025;-64
2021/10/19 09:51:20;;;;;;;3.80;1.88;;;;;;;13.23;100.00;95664.69;5035276;28;20067;-63
2021/10/19 09:53:45;;;;;;;2.58;1.70;;;;;;;13.32;100.00;95682.75;5052276;28;20021;-63
2021/10/19 09:56:11;;;;;;;4.78;2.00;;;;;;;13.41;100.00;95695.69;5035522;28;20510;-63
2021/10/19 09:58:36;;;;;;;2.95;1.83;;;;;;;13.46;100.00;95715.34;5035331;28;20119;-63
2021/10/19 10:01:04;;;;;;;2.95;1.77;;;;;;;13.52;100.00;95722.31;5035195;28;20025;-63
2021/10/19 10:03:29;;;;;;;4.25;1.75;;;;;;;13.58;100.00;95710.50;5046108;28;20037;-63
2021/10/19 10:05:57;;;;;;;4.20;1.80;;;;;;;13.48;100.00;95734.72;5065531;28;20499;-63
2021/10/19 10:08:24;;;;;;;3.20;1.77;;;;;;;13.54;100.00;95757.84;5033098;28;20473;-63
2021/10/19 10:10:57;;;;;;;4.88;2.13;;;;;;;13.55;100.00;95754.09;5030888;28;20563;-64
2021/10/19 10:13:23;;;;;;;2.25;1.63;;;;;;;13.61;100.00;95757.59;5015272;28;20119;-64
2021/10/19 10:15:49;;;;;;;4.93;1.70;;;;;;;13.61;100.00;95773.75;5032944;28;20083;-64
2021/10/19 10:18:14;;;;;;;2.92;1.63;;;;;;;13.62;100.00;95778.88;5028323;28;20030;-64
2021/10/19 10:20:42;;;;;;;1.85;1.48;;;;;;;13.55;100.00;95815.19;5045948;28;20388;-64
2021/10/19 10:23:15;;;;;;;2.35;1.50;;;;;;;13.55;100.00;95786.38;5034621;28;20504;-64
2021/10/19 10:25:40;;;;;;;2.47;1.50;;;;;;;13.53;100.00;95801.19;5034929;28;20029;-64
2021/10/19 10:28:31;;;;;;;3.42;1.70;;;;;;;13.49;100.00;95819.75;5035017;28;20091;-63
2021/10/19 10:30:58;;;;;;;3.55;1.67;;;;;;;13.49;100.00;95819.75;5052247;28;20103;-63
2021/10/19 10:33:39;;;;;;;2.17;1.35;;;;;;;13.49;100.00;95822.44;5051568;28;20071;-64
2021/10/19 10:36:06;;;;;;;2.22;1.65;;;;;;;13.50;100.00;95836.72;5051449;28;20130;-64
2021/10/19 10:38:33;;;;;;;3.45;1.95;;;;;;;13.54;100.00;95845.88;5052318;28;20503;-64
2021/10/19 10:41:13;;;;;;;3.60;1.98;;;;;;;13.61;100.00;95849.94;5034069;28;20069;-63
2021/10/19 10:43:38;;;;;;;3.45;1.80;;;;;;;13.69;100.00;95889.00;5034625;28;20040;-64
2021/10/19 10:46:20;;;;;;;3.67;1.60;;;;;;;13.83;100.00;95884.72;5052537;28;20407;-63
2021/10/19 10:48:46;;;;;;;2.75;1.50;;;;;;;13.87;100.00;95891.19;5051457;28;20052;-63
2021/10/19 10:51:13;;;;;;;2.45;1.40;;;;;;;13.98;100.00;95880.44;5034230;28;20029;-64
2021/10/19 10:53:44;;;;;;;2.15;1.60;;;;;;;14.05;100.00;95843.28;5052316;28;20083;-64
2021/10/19 10:56:11;;;;;;;2.30;1.65;;;;;;;14.08;100.00;95822.00;5034268;28;20471;-64
2021/10/19 10:58:39;;;;;;;2.67;1.63;;;;;;;14.15;100.00;95833.31;5034259;28;20568;-62
2021/10/19 11:01:16;;;;;;;3.42;1.95;;;;;;;14.11;100.00;95836.81;5033682;28;20040;-63
2021/10/19 11:03:46;;;;;;;2.33;1.60;;;;;;;14.11;100.00;95861.06;5043324;28;20052;-64
2021/10/19 11:06:25;;;;;;;1.60;1.50;;;;;;;14.14;100.00;95882.09;5064485;28;20366;-64
2021/10/19 11:08:58;;;;;;;4.28;1.77;;;;;;;14.30;100.00;95858.66;5032010;28;20025;-64
2021/10/19 11:11:24;;;;;;;3.20;2.03;;;;;;;14.42;100.00;95860.00;4993789;28;20030;-64
2021/10/19 11:13:58;;;;;;;3.42;1.95;;;;;;;14.57;100.00;95855.72;5043447;28;20029;-64
2021/10/19 11:16:39;;;;;;;3.35;2.35;;;;;;;14.71;100.00;95854.88;5025692;28;20456;-64
2021/10/19 11:19:19;;;;;;;2.85;1.77;;;;;;;14.81;100.00;95894.53;5051865;28;20791;-64
2021/10/19 11:21:45;;;;;;;3.08;1.83;;;;;;;14.92;100.00;95884.53;5033325;28;20479;-64